Time;durP1;ratioP1;P1;durP2;ratioP2;P2;SDS_P1;SDS_P2;PMS_P1;PMS_P2;Temp;Humidity;BMP_temperature;BMP_pressure;BME280_temperature;BME280_humidity;BME280_pressure;Samples;Min_cycle;Max_cycle;Signal;HPM_P1;HPM_P2
2024/01/03 00:00:23;;;;;;;6.10;0.97;;;;;;;8.77;100.00;98428.38;5053768;28;20037;-67
2024/01/03 00:02:49;;;;;;;2.90;0.70;;;;;;;8.78;100.00;98428.38;5052940;28;20033;-67
2024/01/03 00:05:20;;;;;;;5.38;0.65;;;;;;;8.78;100.00;98412.59;5052162;28;20055;-68
2024/01/03 00:07:47;;;;;;;4.57;0.80;;;;;;;8.79;100.00;98414.34;5052690;28;20025;-67
2024/01/03 00:10:49;;;;;;;3.33;0.73;;;;;;;8.79;100.00;98409.09;5052263;28;20084;-67
2024/01/03 00:13:30;;;;;;;4.63;1.00;;;;;;;8.81;100.00;98404.75;5052710;28;20040;-67
2024/01/03 00:16:01;;;;;;;5.20;0.63;;;;;;;8.82;100.00;98409.16;5052048;28;20438;-67
2024/01/03 00:18:56;;;;;;;3.47;0.68;;;;;;;8.83;100.00;98407.41;5052274;28;20121;-66
2024/01/03 00:21:25;;;;;;;4.35;0.85;;;;;;;8.83;100.00;98412.66;5051252;28;20055;-66
2024/01/03 00:24:00;;;;;;;3.37;0.70;;;;;;;8.82;100.00;98409.16;5052328;28;20032;-66
2024/01/03 00:26:28;;;;;;;3.10;0.63;;;;;;;8.85;100.00;98403.03;5051751;28;20037;-67
2024/01/03 00:28:54;;;;;;;4.55;0.70;;;;;;;8.85;100.00;98397.75;5051682;28;20041;-66
2024/01/03 00:31:40;;;;;;;3.40;0.70;;;;;;;8.85;100.00;98393.38;5052085;28;20116;-67
2024/01/03 00:34:22;;;;;;;4.78;0.98;;;;;;;8.88;100.00;98397.81;5050894;28;20091;-66
2024/01/03 00:36:55;;;;;;;3.37;0.60;;;;;;;8.86;100.00;98400.41;5034234;28;20029;-66
2024/01/03 00:39:25;;;;;;;7.93;0.70;;;;;;;8.87;100.00;98399.56;5051884;28;20037;-66
2024/01/03 00:41:51;;;;;;;3.80;0.80;;;;;;;8.90;100.00;98399.56;5051964;28;20052;-66
2024/01/03 00:46:32;;;;;;;2.65;0.50;;;;;;;8.90;100.00;98394.31;5107656;27;20359;-67
2024/01/03 00:48:58;;;;;;;4.10;0.80;;;;;;;8.90;100.00;98389.03;5107556;28;20029;-68
2024/01/03 00:51:24;;;;;;;3.40;0.73;;;;;;;8.91;100.00;98384.66;5106580;28;20119;-68
2024/01/03 00:53:49;;;;;;;3.77;0.67;;;;;;;8.89;100.00;98395.16;5106781;28;20031;-65
2024/01/03 00:56:15;;;;;;;2.80;0.60;;;;;;;8.86;100.00;98392.50;5105938;28;20024;-66
2024/01/03 00:58:40;;;;;;;2.80;0.60;;;;;;;8.84;100.00;98386.34;5107448;28;20028;-65
2024/01/03 01:01:06;;;;;;;3.37;0.67;;;;;;;8.83;100.00;98392.47;5109436;28;20395;-65
2024/01/03 01:03:32;;;;;;;4.68;0.47;;;;;;;8.83;100.00;98392.47;5107560;28;20028;-67
2024/01/03 01:05:57;;;;;;;2.57;0.50;;;;;;;8.85;100.00;98395.13;5106895;28;20040;-68
2024/01/03 01:08:23;;;;;;;3.13;0.60;;;;;;;8.83;100.00;98403.00;5106089;28;20036;-67
2024/01/03 01:10:48;;;;;;;2.90;0.50;;;;;;;8.81;100.00;98406.50;5107249;28;20034;-67
2024/01/03 01:13:14;;;;;;;2.63;0.50;;;;;;;8.81;100.00;98417.91;5106516;28;20044;-67
2024/01/03 01:15:39;;;;;;;3.20;0.63;;;;;;;8.80;100.00;98413.50;5107377;28;20093;-67
2024/01/03 01:18:04;;;;;;;3.47;0.60;;;;;;;8.82;100.00;98406.53;5107223;28;20158;-67
2024/01/03 01:20:30;;;;;;;4.47;0.70;;;;;;;8.85;100.00;98409.16;5107045;28;20290;-67
2024/01/03 01:22:55;;;;;;;3.20;0.60;;;;;;;8.87;100.00;98410.06;5107204;28;20044;-67
2024/01/03 01:25:21;;;;;;;2.37;0.47;;;;;;;8.85;100.00;98409.16;5106574;28;20538;-67
2024/01/03 01:27:46;;;;;;;2.73;0.50;;;;;;;8.86;100.00;98424.09;5106952;28;20157;-67
2024/01/03 01:30:11;;;;;;;4.32;0.40;;;;;;;8.80;100.00;98423.13;5105579;28;20103;-66
2024/01/03 01:32:37;;;;;;;2.40;0.40;;;;;;;8.75;100.00;98420.47;5107045;28;20043;-67
2024/01/03 01:35:02;;;;;;;2.80;0.40;;;;;;;8.72;100.00;98419.56;5106793;28;20023;-67
2024/01/03 01:37:28;;;;;;;5.30;0.43;;;;;;;8.75;100.00;98422.19;5105627;28;20062;-67
2024/01/03 01:39:53;;;;;;;2.20;0.40;;;;;;;8.73;100.00;98430.09;5105500;28;20478;-67
2024/01/03 01:42:19;;;;;;;3.00;0.50;;;;;;;8.71;100.00;98423.94;5106618;28;20089;-67
2024/01/03 01:44:44;;;;;;;3.43;0.50;;;;;;;8.68;100.00;98418.66;5106414;28;20372;-67
2024/01/03 01:47:11;;;;;;;2.27;0.40;;;;;;;8.64;100.00;98430.84;5106590;28;20165;-66
2024/01/03 01:49:39;;;;;;;2.20;0.50;;;;;;;8.59;100.00;98429.91;5105118;28;20065;-67
2024/01/03 01:52:12;;;;;;;2.05;0.30;;;;;;;8.56;100.00;98418.50;5106523;28;20043;-67
2024/01/03 01:54:38;;;;;;;3.05;0.30;;;;;;;8.57;100.00;98423.78;5106261;28;20023;-67
2024/01/03 01:57:03;;;;;;;2.33;0.40;;;;;;;8.60;100.00;98420.28;5096229;28;20530;-67
2024/01/03 01:59:30;;;;;;;2.53;0.40;;;;;;;8.66;100.00;98426.50;5091553;28;20515;-67
2024/01/03 02:01:56;;;;;;;2.27;0.37;;;;;;;8.68;100.00;98427.41;5093190;28;20115;-67
2024/01/03 02:04:22;;;;;;;1.73;0.30;;;;;;;8.71;100.00;98433.56;5091360;28;20024;-67
2024/01/03 02:09:08;;;;;;;2.13;0.30;;;;;;;8.78;100.00;98436.28;5105427;27;20421;-67
2024/01/03 02:11:33;;;;;;;2.43;0.50;;;;;;;8.86;100.00;98439.00;5103066;28;20040;-67
2024/01/03 02:13:58;;;;;;;3.00;0.40;;;;;;;8.91;100.00;98435.56;5087584;28;20107;-65
2024/01/03 02:16:24;;;;;;;1.77;0.30;;;;;;;8.96;100.00;98436.50;5085605;28;20032;-65
2024/01/03 02:18:49;;;;;;;2.47;0.40;;;;;;;8.98;100.00;98432.09;5087178;28;20233;-65
2024/01/03 02:21:16;;;;;;;4.30;0.50;;;;;;;9.04;100.00;98439.19;5085789;28;20116;-65
2024/01/03 02:23:45;;;;;;;4.55;0.50;;;;;;;9.04;100.00;98431.28;5087202;28;20036;-65
2024/01/03 02:26:10;;;;;;;4.25;0.60;;;;;;;9.08;100.00;98436.59;5086627;28;20041;-65
2024/01/03 02:28:36;;;;;;;2.13;0.40;;;;;;;9.06;100.00;98429.56;5085370;28;20040;-65
2024/01/03 02:33:15;;;;;;;1.90;0.40;;;;;;;9.14;100.00;98425.25;5067083;28;20373;-68
2024/01/03 02:35:40;;;;;;;1.67;0.30;;;;;;;9.18;100.00;98432.31;5066850;28;20554;-65
2024/01/03 02:38:06;;;;;;;2.00;0.30;;;;;;;9.24;100.00;98427.09;5067015;28;20037;-65
2024/01/03 02:40:31;;;;;;;2.70;0.53;;;;;;;9.26;100.00;98428.00;5052921;28;20037;-65
2024/01/03 02:42:57;;;;;;;3.47;0.40;;;;;;;9.26;100.00;98432.38;5046731;28;20111;-64
2024/01/03 02:45:22;;;;;;;2.25;0.40;;;;;;;9.24;100.00;98431.47;5046667;28;20120;-65
2024/01/03 02:47:47;;;;;;;4.70;0.30;;;;;;;9.24;100.00;98432.38;5046941;28;20037;-65
2024/01/03 02:50:13;;;;;;;2.17;0.40;;;;;;;9.22;100.00;98431.50;5046799;28;20120;-65
2024/01/03 02:55:08;;;;;;;1.75;0.30;;;;;;;9.23;100.00;98437.59;5066983;28;20423;-68
2024/01/03 02:57:33;;;;;;;3.05;0.30;;;;;;;9.25;100.00;98435.88;5065910;28;20519;-67
2024/01/03 02:59:58;;;;;;;2.50;0.40;;;;;;;9.24;100.00;98437.63;5057600;28;20652;-65
2024/01/03 03:02:24;;;;;;;1.37;0.30;;;;;;;9.19;100.00;98444.59;5048778;28;20113;-66
2024/01/03 03:04:49;;;;;;;1.77;0.47;;;;;;;9.15;100.00;98436.66;5047060;28;20450;-65
2024/01/03 03:07:14;;;;;;;1.73;0.30;;;;;;;9.15;100.00;98444.56;5046715;28;20124;-65
2024/01/03 03:09:40;;;;;;;2.83;0.50;;;;;;;9.09;100.00;98443.63;5047077;28;20397;-66
2024/01/03 03:12:06;;;;;;;3.77;0.60;;;;;;;9.05;100.00;98446.22;5047097;28;20363;-67
2024/01/03 03:14:31;;;;;;;2.93;0.50;;;;;;;8.96;100.00;98441.75;5046570;28;20430;-65
2024/01/03 03:16:56;;;;;;;2.30;0.40;;;;;;;8.92;100.00;98434.69;5045314;28;20389;-65
2024/01/03 03:21:34;;;;;;;3.95;0.40;;;;;;;8.85;100.00;98429.34;5084854;28;20434;-66
2024/01/03 03:24:01;;;;;;;1.73;0.30;;;;;;;8.78;100.00;98446.78;5087412;28;20111;-66
2024/01/03 03:28:38;;;;;;;2.30;0.43;;;;;;;8.72;100.00;98449.38;5003582;28;20391;-66
2024/01/03 03:31:03;;;;;;;2.20;0.40;;;;;;;8.70;100.00;98447.59;4986013;28;20049;-65
2024/01/03 03:33:31;;;;;;;1.83;0.30;;;;;;;8.65;100.00;98452.78;4984514;28;20096;-65
2024/01/03 03:35:56;;;;;;;1.77;0.30;;;;;;;8.58;100.00;98443.94;4984203;28;20033;-64
2024/01/03 03:38:22;;;;;;;3.27;0.40;;;;;;;8.59;100.00;98450.97;4984406;28;20042;-66
2024/01/03 03:40:47;;;;;;;2.67;0.40;;;;;;;8.55;100.00;98454.44;4982957;28;21703;-66
2024/01/03 03:43:13;;;;;;;2.50;0.53;;;;;;;8.53;100.00;98450.03;4984349;28;20129;-65
2024/01/03 03:45:38;;;;;;;4.83;0.43;;;;;;;8.50;100.00;98448.22;4983657;28;20084;-66
2024/01/03 03:48:04;;;;;;;1.87;0.33;;;;;;;8.49;100.00;98446.47;4984349;28;20305;-65
2024/01/03 03:50:30;;;;;;;3.00;0.50;;;;;;;8.46;100.00;98432.41;4984169;28;20042;-67
2024/01/03 03:52:55;;;;;;;2.27;0.50;;;;;;;8.49;100.00;98446.47;4983596;28;20662;-66
2024/01/03 03:55:20;;;;;;;1.90;0.30;;;;;;;8.50;100.00;98442.09;4983740;28;20117;-67
2024/01/03 03:57:46;;;;;;;4.20;0.57;;;;;;;8.48;100.00;98446.47;5052076;28;20567;-66
2024/01/03 04:00:12;;;;;;;1.60;0.30;;;;;;;8.47;100.00;98445.56;5010332;28;20072;-68
2024/01/03 04:02:39;;;;;;;3.20;0.50;;;;;;;8.48;100.00;98443.84;4984423;28;20099;-68
2024/01/03 04:05:05;;;;;;;3.10;0.50;;;;;;;8.45;100.00;98443.78;4990448;28;20439;-67
2024/01/03 04:07:31;;;;;;;2.38;0.40;;;;;;;8.48;100.00;98441.19;4987384;28;20046;-67
2024/01/03 04:09:57;;;;;;;1.50;0.30;;;;;;;8.48;100.00;98444.72;4989586;28;20042;-71
2024/01/03 04:12:22;;;;;;;2.15;0.40;;;;;;;8.53;100.00;98450.91;4983711;28;20022;-71
2024/01/03 04:14:47;;;;;;;5.87;0.40;;;;;;;8.55;100.00;98443.91;4987387;28;20567;-69
2024/01/03 04:17:13;;;;;;;2.27;0.50;;;;;;;8.54;100.00;98443.88;4983672;28;20118;-68
2024/01/03 04:19:38;;;;;;;2.30;0.50;;;;;;;8.50;100.00;98442.97;4983755;28;20487;-69
2024/01/03 04:22:05;;;;;;;2.93;0.40;;;;;;;8.51;100.00;98447.38;4983815;28;20030;-68
2024/01/03 04:24:30;;;;;;;4.80;0.60;;;;;;;8.53;100.00;98435.13;4983367;28;20676;-68
2024/01/03 04:26:55;;;;;;;1.57;0.27;;;;;;;8.48;100.00;98439.47;4983889;28;20041;-72
2024/01/03 04:29:21;;;;;;;1.90;0.30;;;;;;;8.49;100.00;98446.47;4992181;28;20113;-68
2024/01/03 04:31:46;;;;;;;3.53;0.40;;;;;;;8.51;100.00;98459.63;4987274;28;20039;-68
2024/01/03 04:34:12;;;;;;;2.20;0.40;;;;;;;8.58;100.00;98453.59;4999840;28;20038;-67
2024/01/03 04:36:37;;;;;;;3.80;0.40;;;;;;;8.61;100.00;98451.88;4982179;28;20035;-69
2024/01/03 04:39:02;;;;;;;7.93;0.60;;;;;;;8.64;100.00;98459.81;4978834;28;20116;-69
2024/01/03 04:41:28;;;;;;;5.53;0.57;;;;;;;8.66;100.00;98468.63;4970315;28;20073;-68
2024/01/03 04:43:54;;;;;;;2.90;0.70;;;;;;;8.63;100.00;98465.06;4970465;28;20383;-69
2024/01/03 04:46:19;;;;;;;1.77;0.30;;;;;;;8.68;100.00;98461.59;4978312;28;20035;-70
2024/01/03 04:48:44;;;;;;;2.13;0.30;;;;;;;8.69;100.00;98462.47;4970771;28;20126;-67
2024/01/03 04:51:10;;;;;;;6.70;0.50;;;;;;;8.68;100.00;98460.75;4969451;28;20410;-69
2024/01/03 04:53:35;;;;;;;2.47;0.50;;;;;;;8.64;100.00;98465.06;4970422;28;20131;-69
2024/01/03 04:56:00;;;;;;;2.77;0.47;;;;;;;8.63;100.00;98471.19;4970276;28;20778;-68
2024/01/03 04:58:26;;;;;;;2.83;0.40;;;;;;;8.61;100.00;98474.69;4970377;28;20118;-67
2024/01/03 05:00:51;;;;;;;4.97;0.73;;;;;;;8.64;100.00;98475.59;4972044;28;20480;-69
2024/01/03 05:03:17;;;;;;;2.53;0.40;;;;;;;8.65;100.00;98484.38;4970338;28;20046;-67
2024/01/03 05:05:42;;;;;;;3.10;0.50;;;;;;;8.69;100.00;98483.53;4970266;28;20084;-71
2024/01/03 05:08:07;;;;;;;4.17;0.60;;;;;;;8.73;100.00;98480.09;4980540;28;20309;-68
2024/01/03 05:10:33;;;;;;;2.60;0.40;;;;;;;8.79;100.00;98477.50;4976177;28;20122;-70
2024/01/03 05:12:58;;;;;;;1.97;0.30;;;;;;;8.77;100.00;98486.28;4982629;28;20088;-67
2024/01/03 05:15:23;;;;;;;4.83;0.60;;;;;;;8.76;100.00;98477.50;4972298;28;20114;-68
2024/01/03 05:17:51;;;;;;;2.43;0.60;;;;;;;8.80;100.00;98487.19;4970423;28;20113;-68
2024/01/03 05:20:16;;;;;;;3.47;0.40;;;;;;;8.81;100.00;98488.97;4970210;28;20392;-67
2024/01/03 05:22:41;;;;;;;5.72;0.50;;;;;;;8.81;100.00;98481.06;4970216;28;20110;-68
2024/01/03 05:25:08;;;;;;;2.70;0.50;;;;;;;8.83;100.00;98492.47;4995057;28;20120;-67
2024/01/03 05:30:03;;;;;;;3.40;0.50;;;;;;;8.88;100.00;98489.94;5097537;27;20360;-66
2024/01/03 05:32:29;;;;;;;3.63;0.63;;;;;;;8.91;100.00;98490.84;5087279;28;20040;-67
2024/01/03 05:34:54;;;;;;;4.03;0.67;;;;;;;8.98;100.00;98492.66;5086395;28;20059;-66
2024/01/03 05:37:19;;;;;;;4.20;0.60;;;;;;;8.98;100.00;98490.03;5087213;28;20120;-68
2024/01/03 05:39:45;;;;;;;2.23;0.40;;;;;;;8.97;100.00;98495.28;5087022;28;20028;-66
2024/01/03 05:42:10;;;;;;;5.00;0.47;;;;;;;9.03;100.00;98500.59;5092804;28;20107;-67
2024/01/03 05:44:36;;;;;;;3.13;0.50;;;;;;;8.99;100.00;98494.44;5086880;28;20103;-69
2024/01/03 05:47:01;;;;;;;4.17;0.60;;;;;;;9.00;100.00;98490.94;5086967;28;20044;-67
2024/01/03 05:49:27;;;;;;;2.83;0.83;;;;;;;9.07;100.00;98498.06;5086852;28;20064;-66
2024/01/03 05:51:52;;;;;;;2.25;0.40;;;;;;;9.07;100.00;98503.31;5086807;28;20042;-69
2024/01/03 05:54:18;;;;;;;6.00;0.57;;;;;;;9.09;100.00;98501.56;5086736;28;20158;-67
2024/01/03 05:56:44;;;;;;;4.38;0.55;;;;;;;9.13;100.00;98496.34;5086669;28;20078;-71
2024/01/03 05:59:09;;;;;;;2.10;0.37;;;;;;;9.14;100.00;98498.09;5086516;28;20111;-68
2024/01/03 06:01:34;;;;;;;3.97;0.40;;;;;;;9.15;100.00;98506.00;5087396;28;20130;-68
2024/01/03 06:04:00;;;;;;;3.73;0.50;;;;;;;9.18;100.00;98495.50;5086723;28;20039;-72
2024/01/03 06:06:25;;;;;;;3.30;0.40;;;;;;;9.15;100.00;98495.47;5088027;28;20442;-67
2024/01/03 06:08:50;;;;;;;2.70;0.50;;;;;;;9.15;100.00;98500.75;5092992;28;20231;-69
2024/01/03 06:11:16;;;;;;;1.87;0.30;;;;;;;9.13;100.00;98496.34;5086453;28;20496;-71
2024/01/03 06:13:42;;;;;;;4.90;0.50;;;;;;;9.14;100.00;98511.25;5086924;28;20107;-68
2024/01/03 06:16:09;;;;;;;3.80;0.40;;;;;;;9.19;100.00;98512.19;5090682;28;20127;-69
2024/01/03 06:18:34;;;;;;;2.90;0.73;;;;;;;9.24;100.00;98505.22;5086443;28;20044;-69
2024/01/03 06:21:00;;;;;;;3.70;0.40;;;;;;;9.28;100.00;98513.16;5094639;28;20043;-69
2024/01/03 06:23:25;;;;;;;3.77;0.50;;;;;;;9.30;100.00;98521.09;5086416;28;20111;-68
2024/01/03 06:25:52;;;;;;;4.93;0.80;;;;;;;9.32;100.00;98529.91;5085924;28;20040;-71
2024/01/03 06:28:17;;;;;;;5.13;0.93;;;;;;;9.30;100.00;98536.91;5086076;28;20044;-68
2024/01/03 06:30:43;;;;;;;3.80;0.50;;;;;;;9.30;100.00;98536.91;5086129;28;20029;-69
2024/01/03 06:33:08;;;;;;;2.72;0.40;;;;;;;9.33;100.00;98539.56;5086083;28;20043;-69
2024/01/03 06:35:33;;;;;;;2.50;0.43;;;;;;;9.34;100.00;98551.88;5085561;28;20760;-68
2024/01/03 06:37:59;;;;;;;5.30;0.60;;;;;;;9.34;100.00;98551.88;5086023;28;20032;-68
2024/01/03 06:42:47;;;;;;;9.00;0.73;;;;;;;9.29;100.00;98556.19;5107647;27;21206;-69
2024/01/03 06:45:12;;;;;;;4.13;0.67;;;;;;;9.30;100.00;98566.75;5107250;28;20032;-73
2024/01/03 06:47:41;;;;;;;2.92;0.40;;;;;;;9.34;100.00;98560.66;5097835;28;20081;-66
2024/01/03 06:50:07;;;;;;;3.17;0.45;;;;;;;9.37;100.00;98568.56;5110062;27;20031;-72
2024/01/03 06:52:32;;;;;;;4.77;0.50;;;;;;;9.42;100.00;98568.66;5113794;28;20039;-70
2024/01/03 06:54:58;;;;;;;2.40;0.37;;;;;;;9.44;100.00;98572.16;5110118;28;20114;-69
2024/01/03 06:57:23;;;;;;;4.57;0.50;;;;;;;9.46;100.00;98570.44;5109529;28;20585;-69
2024/01/03 06:59:49;;;;;;;4.43;0.50;;;;;;;9.43;100.00;98586.19;5111757;28;20050;-73
2024/01/03 07:02:14;;;;;;;3.53;0.67;;;;;;;9.40;100.00;98575.66;5108666;28;20518;-66
2024/01/03 07:04:39;;;;;;;9.00;0.70;;;;;;;9.44;100.00;98580.97;5106935;28;20122;-67
2024/01/03 07:07:05;;;;;;;4.05;0.68;;;;;;;9.46;100.00;98588.88;5104241;28;20481;-69
2024/01/03 07:09:30;;;;;;;2.33;0.47;;;;;;;9.43;100.00;98583.56;5098370;28;20166;-67
2024/01/03 07:11:55;;;;;;;7.43;0.80;;;;;;;9.42;100.00;98590.59;5111718;28;20490;-68
2024/01/03 07:14:21;;;;;;;2.83;0.50;;;;;;;9.41;100.00;98577.41;5099742;28;20194;-71
2024/01/03 07:16:46;;;;;;;3.30;0.40;;;;;;;9.42;100.00;98580.03;5095482;28;20622;-67
2024/01/03 07:19:12;;;;;;;3.30;0.98;;;;;;;9.46;100.00;98578.34;5102364;28;20042;-67
2024/01/03 07:21:37;;;;;;;3.10;0.37;;;;;;;9.46;100.00;98588.88;5114028;28;20119;-68
2024/01/03 07:24:02;;;;;;;5.67;0.70;;;;;;;9.50;100.00;98588.06;5104504;28;20040;-68
2024/01/03 07:26:28;;;;;;;3.47;0.50;;;;;;;9.57;100.00;98595.13;5114960;27;20051;-68
2024/01/03 07:28:53;;;;;;;7.23;0.80;;;;;;;9.59;100.00;98592.53;5117905;28;20097;-70
2024/01/03 07:31:18;;;;;;;5.35;0.60;;;;;;;9.58;100.00;98591.63;5109869;28;20036;-69
2024/01/03 07:33:44;;;;;;;3.13;0.60;;;;;;;9.51;100.00;98589.81;5098881;28;20101;-68
2024/01/03 07:36:09;;;;;;;3.20;0.50;;;;;;;9.58;100.00;98591.63;5094936;28;20548;-63
2024/01/03 07:38:35;;;;;;;3.63;0.80;;;;;;;9.79;100.00;98594.50;5088098;28;20056;-64
2024/01/03 07:41:00;;;;;;;3.77;0.47;;;;;;;9.95;100.00;98600.81;5106239;28;20617;-63
2024/01/03 07:43:27;;;;;;;4.80;0.40;;;;;;;10.00;100.00;98595.56;5099888;28;20036;-64
2024/01/03 07:45:52;;;;;;;4.07;0.47;;;;;;;9.98;100.00;98590.28;5108621;28;20046;-64
2024/01/03 07:48:17;;;;;;;3.07;0.27;;;;;;;10.08;100.00;98602.66;5107339;28;20376;-63
2024/01/03 07:50:43;;;;;;;4.23;0.50;;;;;;;10.10;100.00;98595.66;5106348;28;20083;-63
2024/01/03 07:53:08;;;;;;;4.93;0.70;;;;;;;10.09;100.00;98599.16;5098290;28;20036;-63
2024/01/03 07:55:33;;;;;;;5.47;0.50;;;;;;;10.14;100.00;98597.44;5091998;28;20118;-70
2024/01/03 07:57:59;;;;;;;2.97;0.52;;;;;;;10.00;98.98;98606.13;5093079;28;20500;-68
2024/01/03 08:00:24;;;;;;;4.03;0.43;;;;;;;9.92;99.04;98598.13;5094406;28;20031;-69
2024/01/03 08:02:49;;;;;;;3.60;0.50;;;;;;;9.86;96.17;98601.59;5097367;28;20464;-68
2024/01/03 08:07:32;;;;;;;2.60;0.47;;;;;;;9.80;98.20;98598.91;5067030;28;20369;-69
2024/01/03 08:09:58;;;;;;;2.70;0.60;;;;;;;9.78;99.05;98608.53;5057565;28;20021;-69
2024/01/03 08:12:23;;;;;;;2.38;0.40;;;;;;;9.76;98.15;98606.78;5047164;28;20091;-67
2024/01/03 08:14:49;;;;;;;2.50;0.50;;;;;;;9.82;97.70;98607.69;5046755;28;20030;-67
2024/01/03 08:17:14;;;;;;;4.60;0.40;;;;;;;9.83;97.82;98612.09;5046352;28;20136;-70
2024/01/03 08:19:40;;;;;;;5.93;0.73;;;;;;;9.79;98.07;98607.69;5046483;28;20108;-71
2024/01/03 08:22:05;;;;;;;4.88;0.60;;;;;;;9.81;96.43;98612.97;5044997;28;20084;-67
2024/01/03 08:24:30;;;;;;;2.53;0.47;;;;;;;9.84;96.13;98605.97;5045323;28;20041;-67
2024/01/03 08:26:57;;;;;;;4.37;0.43;;;;;;;9.82;96.83;98602.41;5045848;28;20033;-71
2024/01/03 08:29:23;;;;;;;2.00;0.37;;;;;;;9.82;97.25;98618.25;5046746;28;20354;-67
2024/01/03 08:31:51;;;;;;;3.80;0.70;;;;;;;9.79;97.37;98618.22;5047244;28;20108;-68
2024/01/03 08:34:16;;;;;;;3.35;0.50;;;;;;;9.82;97.34;98602.41;5046792;28;20057;-71
2024/01/03 08:36:44;;;;;;;3.97;0.63;;;;;;;9.85;97.67;98623.56;5046638;28;20142;-68
2024/01/03 08:39:10;;;;;;;3.38;0.60;;;;;;;9.88;97.85;98614.78;5046418;28;20116;-68
2024/01/03 08:41:36;;;;;;;4.30;0.57;;;;;;;9.88;97.29;98610.41;5046700;28;20163;-68
2024/01/03 08:44:07;;;;;;;2.90;0.52;;;;;;;9.92;97.02;98611.28;5045270;28;20029;-69
2024/01/03 08:46:38;;;;;;;3.80;0.50;;;;;;;9.95;97.30;98614.88;5046166;28;20033;-69
2024/01/03 08:49:04;;;;;;;3.50;0.70;;;;;;;9.96;97.19;98608.69;5046448;28;20032;-68
2024/01/03 08:51:29;;;;;;;3.07;0.40;;;;;;;10.00;97.50;98622.81;5046188;28;20402;-68
2024/01/03 08:53:54;;;;;;;3.80;0.50;;;;;;;10.03;97.61;98614.03;5046345;28;20292;-70
2024/01/03 08:56:20;;;;;;;3.10;0.40;;;;;;;10.05;95.43;98618.47;5045913;28;20037;-67
2024/01/03 08:58:47;;;;;;;3.13;0.40;;;;;;;10.11;94.08;98620.28;5045135;28;20108;-68
2024/01/03 09:01:16;;;;;;;6.53;0.63;;;;;;;10.15;94.63;98611.53;5047970;28;20033;-68
2024/01/03 09:03:42;;;;;;;4.78;0.57;;;;;;;10.20;94.80;98612.47;5046338;28;20108;-68
2024/01/03 09:06:07;;;;;;;2.93;0.40;;;;;;;10.25;95.15;98619.56;5045629;28;20120;-69
2024/01/03 09:08:32;;;;;;;5.20;1.00;;;;;;;10.33;95.10;98623.13;5046166;28;20115;-70
2024/01/03 09:10:58;;;;;;;5.10;0.50;;;;;;;10.46;92.87;98617.97;5046109;28;20021;-67
2024/01/03 09:13:23;;;;;;;4.97;0.60;;;;;;;10.54;93.26;98627.72;5046070;28;20041;-68
2024/01/03 09:15:49;;;;;;;3.50;0.70;;;;;;;10.58;92.51;98624.22;5045594;28;20557;-68
2024/01/03 09:18:14;;;;;;;2.50;0.43;;;;;;;10.62;93.36;98635.66;5036505;28;20047;-67
2024/01/03 09:20:40;;;;;;;2.97;0.40;;;;;;;10.65;92.46;98627.78;5032522;28;20555;-67
2024/01/03 09:23:05;;;;;;;2.37;0.40;;;;;;;10.75;92.43;98626.97;5032679;28;20287;-68
2024/01/03 09:27:46;;;;;;;2.03;0.35;;;;;;;10.93;90.90;98629.72;5116328;27;20366;-68
2024/01/03 09:30:11;;;;;;;2.63;0.40;;;;;;;10.99;90.76;98631.50;5094744;28;20471;-69
2024/01/03 09:32:37;;;;;;;5.20;0.73;;;;;;;11.04;90.17;98624.50;5087185;28;20089;-69
2024/01/03 09:35:03;;;;;;;1.80;0.30;;;;;;;11.06;90.45;98628.00;5087135;28;20035;-69
2024/01/03 09:37:29;;;;;;;4.88;0.80;;;;;;;11.08;90.69;98628.91;5087044;28;20127;-69
2024/01/03 09:39:55;;;;;;;5.80;0.67;;;;;;;11.12;88.46;98633.34;5087152;28;20085;-68
2024/01/03 09:42:21;;;;;;;3.13;0.40;;;;;;;11.16;86.08;98637.75;5087427;28;20024;-70
2024/01/03 09:44:46;;;;;;;5.72;0.68;;;;;;;11.16;87.26;98628.06;5087150;28;20035;-68
2024/01/03 09:47:12;;;;;;;3.93;0.50;;;;;;;11.19;87.39;98635.16;5087047;28;20559;-68
2024/01/03 09:49:37;;;;;;;5.43;0.53;;;;;;;11.26;88.05;98629.88;5086817;28;20099;-68
2024/01/03 09:52:04;;;;;;;2.22;0.55;;;;;;;11.37;88.18;98640.50;5086945;28;20512;-69
2024/01/03 09:54:31;;;;;;;2.70;0.50;;;;;;;11.44;86.72;98638.78;5086909;28;20032;-68
2024/01/03 09:56:56;;;;;;;3.85;0.82;;;;;;;11.57;86.55;98638.81;5087071;28;20104;-68
2024/01/03 09:59:22;;;;;;;2.90;0.38;;;;;;;11.66;84.38;98637.94;5086845;28;20111;-68
2024/01/03 10:01:58;;;;;;;4.57;0.83;;;;;;;11.77;85.59;98635.38;5088937;28;20373;-72
2024/01/03 10:04:24;;;;;;;4.47;0.55;;;;;;;11.76;84.58;98636.25;5086732;28;20058;-68
2024/01/03 10:06:54;;;;;;;4.37;0.50;;;;;;;11.75;84.03;98626.53;5087376;28;20137;-68
2024/01/03 10:09:20;;;;;;;2.83;0.57;;;;;;;11.80;84.44;98628.31;5086551;28;20561;-69
2024/01/03 10:11:46;;;;;;;3.20;0.40;;;;;;;11.82;83.37;98634.50;5086824;28;20055;-68
2024/01/03 10:14:18;;;;;;;4.10;0.57;;;;;;;11.86;83.97;98645.97;5086582;28;20028;-68
2024/01/03 10:16:44;;;;;;;3.05;0.40;;;;;;;11.80;82.72;98627.44;5086360;28;20484;-69
2024/01/03 10:19:10;;;;;;;3.47;0.52;;;;;;;11.75;80.53;98638.00;5086068;28;20033;-70
2024/01/03 10:21:38;;;;;;;4.45;0.60;;;;;;;11.75;81.98;98643.28;5086451;28;20090;-69
2024/01/03 10:24:05;;;;;;;8.55;0.70;;;;;;;11.75;83.43;98643.28;5086312;28;20032;-69
2024/01/03 10:26:31;;;;;;;3.67;0.60;;;;;;;11.75;83.10;98634.47;5085649;28;20547;-67
2024/01/03 10:29:11;;;;;;;7.03;1.45;;;;;;;11.74;83.11;98632.75;5086236;28;20133;-68
2024/01/03 10:31:36;;;;;;;4.68;0.70;;;;;;;11.74;83.00;98633.63;5086254;28;20131;-69
2024/01/03 10:34:04;;;;;;;4.37;0.70;;;;;;;11.74;82.62;98640.66;5086472;28;20032;-68
2024/01/03 10:36:32;;;;;;;4.47;0.70;;;;;;;11.87;82.89;98631.88;5085806;28;20543;-71
2024/01/03 10:38:59;;;;;;;3.38;0.50;;;;;;;11.97;83.11;98634.53;5074540;28;20038;-69
2024/01/03 10:41:25;;;;;;;6.40;0.57;;;;;;;11.99;83.10;98627.47;5075391;28;20048;-69
2024/01/03 10:43:51;;;;;;;3.63;0.40;;;;;;;11.99;83.25;98626.59;5073772;28;20025;-70
2024/01/03 10:46:18;;;;;;;3.78;0.40;;;;;;;11.97;84.08;98623.97;5072010;28;20082;-68
2024/01/03 10:48:44;;;;;;;3.67;0.60;;;;;;;11.97;83.83;98631.00;5072336;28;20036;-68
2024/01/03 10:51:13;;;;;;;4.93;0.63;;;;;;;11.96;82.36;98631.88;5072704;28;20476;-68
2024/01/03 10:53:42;;;;;;;9.50;0.73;;;;;;;11.99;82.48;98635.41;5072362;28;20036;-69
2024/01/03 10:56:09;;;;;;;3.67;0.40;;;;;;;12.05;82.56;98623.97;5072381;28;20040;-70
2024/01/03 10:58:42;;;;;;;3.33;0.60;;;;;;;12.05;82.36;98626.59;5072643;28;20503;-69
2024/01/03 11:01:18;;;;;;;3.83;0.50;;;;;;;12.13;82.31;98629.28;5074315;28;20036;-68
2024/01/03 11:04:16;;;;;;;4.53;0.70;;;;;;;12.09;81.67;98628.38;5072305;28;20606;-69
2024/01/03 11:07:05;;;;;;;4.03;0.57;;;;;;;12.07;81.82;98624.84;5072124;28;20032;-69
2024/01/03 11:09:31;;;;;;;5.93;0.57;;;;;;;12.05;82.59;98616.91;5071951;28;20032;-68
2024/01/03 11:12:13;;;;;;;5.78;0.60;;;;;;;12.01;81.79;98606.31;5080595;28;20121;-69
2024/01/03 11:14:38;;;;;;;4.15;0.95;;;;;;;12.00;81.07;98612.50;5071682;28;20278;-69
2024/01/03 11:17:06;;;;;;;4.33;0.70;;;;;;;12.00;80.42;98612.50;5071849;28;20111;-68
2024/01/03 11:19:32;;;;;;;4.17;0.60;;;;;;;12.00;80.85;98612.50;5071473;28;20302;-68
2024/01/03 11:22:05;;;;;;;5.88;0.65;;;;;;;12.02;80.60;98600.16;5072018;28;20028;-69
2024/01/03 11:24:33;;;;;;;5.68;0.68;;;;;;;12.01;80.04;98603.69;5071302;28;20021;-68
2024/01/03 11:27:04;;;;;;;3.60;0.60;;;;;;;12.00;80.71;98605.44;5071527;28;20450;-68
2024/01/03 11:29:35;;;;;;;6.35;0.57;;;;;;;12.00;81.25;98597.50;5071432;28;20039;-68
2024/01/03 11:32:08;;;;;;;5.17;1.00;;;;;;;12.01;80.40;98598.38;5071568;28;20040;-69
2024/01/03 11:34:44;;;;;;;5.40;1.10;;;;;;;12.07;80.38;98601.06;5071306;28;20086;-68
2024/01/03 11:37:12;;;;;;;4.57;0.60;;;;;;;12.12;80.07;98604.59;5071472;28;20037;-69
2024/01/03 11:39:43;;;;;;;3.80;0.55;;;;;;;12.11;80.69;98600.16;5071353;28;20031;-68
2024/01/03 11:42:18;;;;;;;3.58;0.70;;;;;;;12.09;80.27;98601.91;5071595;28;20127;-69
2024/01/03 11:44:44;;;;;;;4.43;0.80;;;;;;;12.03;79.63;98596.66;5071058;28;20396;-70
2024/01/03 11:47:11;;;;;;;4.88;0.70;;;;;;;11.96;79.57;98606.31;5079560;28;20028;-69
2024/01/03 11:49:36;;;;;;;5.57;0.90;;;;;;;12.06;80.33;98599.28;5070032;28;20404;-67
2024/01/03 11:52:02;;;;;;;7.57;0.73;;;;;;;12.02;80.92;98598.41;5070060;28;20040;-68
2024/01/03 11:54:27;;;;;;;3.37;0.60;;;;;;;11.95;81.72;98598.38;5070984;28;20036;-73